sensor_id;sensor_type;location;lat;lon;timestamp;P1;durP1;ratioP1;P2;durP2;ratioP2
6850;SDS011;3464;42.728;23.296;2023-11-21T00:01:12;103.43;;;54.77;;
6850;SDS011;3464;42.728;23.296;2023-11-21T00:03:39;92.07;;;50.77;;
6850;SDS011;3464;42.728;23.296;2023-11-21T00:06:06;94.43;;;49.60;;
6850;SDS011;3464;42.728;23.296;2023-11-21T00:08:32;92.43;;;49.97;;
6850;SDS011;3464;42.728;23.296;2023-11-21T00:10:59;101.17;;;51.53;;
6850;SDS011;3464;42.728;23.296;2023-11-21T00:13:26;95.17;;;53.37;;
6850;SDS011;3464;42.728;23.296;2023-11-21T00:15:53;89.17;;;46.10;;
6850;SDS011;3464;42.728;23.296;2023-11-21T00:18:20;83.30;;;46.03;;
6850;SDS011;3464;42.728;23.296;2023-11-21T00:20:46;96.27;;;47.90;;
6850;SDS011;3464;42.728;23.296;2023-11-21T00:23:12;89.10;;;45.97;;
6850;SDS011;3464;42.728;23.296;2023-11-21T00:25:39;92.47;;;49.73;;
6850;SDS011;3464;42.728;23.296;2023-11-21T00:28:06;88.17;;;47.93;;
6850;SDS011;3464;42.728;23.296;2023-11-21T00:30:33;85.63;;;44.20;;
6850;SDS011;3464;42.728;23.296;2023-11-21T00:33:00;95.23;;;48.77;;
6850;SDS011;3464;42.728;23.296;2023-11-21T00:35:26;84.63;;;45.97;;
6850;SDS011;3464;42.728;23.296;2023-11-21T00:37:53;82.87;;;43.33;;
6850;SDS011;3464;42.728;23.296;2023-11-21T00:40:20;70.13;;;38.77;;
6850;SDS011;3464;42.728;23.296;2023-11-21T00:42:47;79.23;;;42.57;;
6850;SDS011;3464;42.728;23.296;2023-11-21T00:45:13;83.50;;;44.33;;
6850;SDS011;3464;42.728;23.296;2023-11-21T00:47:40;71.23;;;40.10;;
6850;SDS011;3464;42.728;23.296;2023-11-21T00:50:07;78.10;;;42.07;;
6850;SDS011;3464;42.728;23.296;2023-11-21T00:52:34;62.67;;;35.90;;
6850;SDS011;3464;42.728;23.296;2023-11-21T00:55:01;63.93;;;33.87;;
6850;SDS011;3464;42.728;23.296;2023-11-21T00:57:28;74.23;;;35.60;;
6850;SDS011;3464;42.728;23.296;2023-11-21T00:59:55;64.60;;;33.37;;
6850;SDS011;3464;42.728;23.296;2023-11-21T01:02:22;64.50;;;35.33;;
6850;SDS011;3464;42.728;23.296;2023-11-21T01:04:48;56.53;;;28.60;;
6850;SDS011;3464;42.728;23.296;2023-11-21T01:07:15;58.80;;;31.07;;
6850;SDS011;3464;42.728;23.296;2023-11-21T01:09:42;45.63;;;25.30;;
6850;SDS011;3464;42.728;23.296;2023-11-21T01:12:09;53.13;;;26.60;;
6850;SDS011;3464;42.728;23.296;2023-11-21T01:14:35;49.17;;;25.23;;
6850;SDS011;3464;42.728;23.296;2023-11-21T01:17:02;46.10;;;24.10;;
6850;SDS011;3464;42.728;23.296;2023-11-21T01:19:29;41.63;;;22.80;;
6850;SDS011;3464;42.728;23.296;2023-11-21T01:21:55;40.10;;;20.50;;
6850;SDS011;3464;42.728;23.296;2023-11-21T01:24:22;46.00;;;21.33;;
6850;SDS011;3464;42.728;23.296;2023-11-21T01:26:49;45.20;;;22.10;;
6850;SDS011;3464;42.728;23.296;2023-11-21T01:29:16;46.50;;;22.40;;
6850;SDS011;3464;42.728;23.296;2023-11-21T01:31:43;42.87;;;21.50;;
6850;SDS011;3464;42.728;23.296;2023-11-21T01:34:09;45.00;;;23.50;;
6850;SDS011;3464;42.728;23.296;2023-11-21T01:36:36;48.00;;;23.70;;
6850;SDS011;3464;42.728;23.296;2023-11-21T01:39:03;53.20;;;26.10;;
6850;SDS011;3464;42.728;23.296;2023-11-21T01:41:29;51.60;;;25.80;;
6850;SDS011;3464;42.728;23.296;2023-11-21T01:43:56;66.67;;;30.23;;
6850;SDS011;3464;42.728;23.296;2023-11-21T01:46:23;49.40;;;25.10;;
6850;SDS011;3464;42.728;23.296;2023-11-21T01:48:50;45.73;;;23.37;;
6850;SDS011;3464;42.728;23.296;2023-11-21T01:51:17;40.17;;;21.00;;
6850;SDS011;3464;42.728;23.296;2023-11-21T01:53:44;40.97;;;19.67;;
6850;SDS011;3464;42.728;23.296;2023-11-21T01:56:10;41.43;;;21.40;;
6850;SDS011;3464;42.728;23.296;2023-11-21T01:58:37;44.90;;;22.10;;
6850;SDS011;3464;42.728;23.296;2023-11-21T02:01:04;45.97;;;21.80;;
6850;SDS011;3464;42.728;23.296;2023-11-21T02:03:31;53.10;;;24.47;;
6850;SDS011;3464;42.728;23.296;2023-11-21T02:05:57;47.83;;;23.50;;
6850;SDS011;3464;42.728;23.296;2023-11-21T02:08:24;46.30;;;22.83;;
6850;SDS011;3464;42.728;23.296;2023-11-21T02:10:50;45.07;;;23.60;;
6850;SDS011;3464;42.728;23.296;2023-11-21T02:13:17;49.20;;;24.17;;
6850;SDS011;3464;42.728;23.296;2023-11-21T02:15:44;49.27;;;24.30;;
6850;SDS011;3464;42.728;23.296;2023-11-21T02:18:11;49.67;;;24.20;;
6850;SDS011;3464;42.728;23.296;2023-11-21T02:20:38;44.37;;;22.17;;
6850;SDS011;3464;42.728;23.296;2023-11-21T02:23:05;39.77;;;20.93;;
6850;SDS011;3464;42.728;23.296;2023-11-21T02:25:32;38.13;;;18.93;;
6850;SDS011;3464;42.728;23.296;2023-11-21T02:28:00;36.00;;;19.30;;
6850;SDS011;3464;42.728;23.296;2023-11-21T02:30:28;38.83;;;17.90;;
6850;SDS011;3464;42.728;23.296;2023-11-21T02:32:55;33.40;;;17.70;;
6850;SDS011;3464;42.728;23.296;2023-11-21T02:35:23;33.23;;;16.80;;
6850;SDS011;3464;42.728;23.296;2023-11-21T02:37:49;32.90;;;16.53;;
6850;SDS011;3464;42.728;23.296;2023-11-21T02:40:16;31.77;;;16.47;;
6850;SDS011;3464;42.728;23.296;2023-11-21T02:42:44;34.67;;;16.80;;
6850;SDS011;3464;42.728;23.296;2023-11-21T02:45:10;37.97;;;17.53;;
6850;SDS011;3464;42.728;23.296;2023-11-21T02:47:37;37.63;;;17.37;;
6850;SDS011;3464;42.728;23.296;2023-11-21T02:50:04;39.57;;;19.77;;
6850;SDS011;3464;42.728;23.296;2023-11-21T02:52:31;38.73;;;18.10;;
6850;SDS011;3464;42.728;23.296;2023-11-21T02:54:58;35.83;;;18.87;;
6850;SDS011;3464;42.728;23.296;2023-11-21T02:57:25;39.57;;;20.00;;
6850;SDS011;3464;42.728;23.296;2023-11-21T02:59:52;38.73;;;19.80;;
6850;SDS011;3464;42.728;23.296;2023-11-21T03:02:18;40.27;;;21.70;;
6850;SDS011;3464;42.728;23.296;2023-11-21T03:04:45;42.87;;;21.57;;
6850;SDS011;3464;42.728;23.296;2023-11-21T03:07:11;42.17;;;22.60;;
6850;SDS011;3464;42.728;23.296;2023-11-21T03:09:38;46.40;;;22.53;;
6850;SDS011;3464;42.728;23.296;2023-11-21T03:12:05;44.47;;;22.70;;
6850;SDS011;3464;42.728;23.296;2023-11-21T03:14:31;40.60;;;22.57;;
6850;SDS011;3464;42.728;23.296;2023-11-21T03:16:58;44.70;;;24.03;;
6850;SDS011;3464;42.728;23.296;2023-11-21T03:19:25;44.10;;;23.63;;
6850;SDS011;3464;42.728;23.296;2023-11-21T03:21:53;41.00;;;23.53;;
6850;SDS011;3464;42.728;23.296;2023-11-21T03:24:19;40.43;;;23.07;;
6850;SDS011;3464;42.728;23.296;2023-11-21T03:26:46;45.60;;;24.87;;
6850;SDS011;3464;42.728;23.296;2023-11-21T03:29:13;42.10;;;22.93;;
6850;SDS011;3464;42.728;23.296;2023-11-21T03:31:40;43.63;;;23.93;;
6850;SDS011;3464;42.728;23.296;2023-11-21T03:34:06;44.10;;;24.47;;
6850;SDS011;3464;42.728;23.296;2023-11-21T03:36:33;48.40;;;22.83;;
6850;SDS011;3464;42.728;23.296;2023-11-21T03:38:59;47.63;;;24.03;;
6850;SDS011;3464;42.728;23.296;2023-11-21T03:41:26;43.43;;;23.80;;
6850;SDS011;3464;42.728;23.296;2023-11-21T03:43:52;42.43;;;24.00;;
6850;SDS011;3464;42.728;23.296;2023-11-21T03:46:19;42.30;;;22.97;;
6850;SDS011;3464;42.728;23.296;2023-11-21T03:48:46;47.30;;;23.47;;
6850;SDS011;3464;42.728;23.296;2023-11-21T03:51:13;44.97;;;24.33;;
6850;SDS011;3464;42.728;23.296;2023-11-21T03:53:39;50.60;;;25.00;;
6850;SDS011;3464;42.728;23.296;2023-11-21T03:56:06;55.03;;;26.40;;
6850;SDS011;3464;42.728;23.296;2023-11-21T03:58:33;49.90;;;24.47;;
6850;SDS011;3464;42.728;23.296;2023-11-21T04:01:00;43.37;;;23.90;;
6850;SDS011;3464;42.728;23.296;2023-11-21T04:03:27;42.80;;;22.23;;
6850;SDS011;3464;42.728;23.296;2023-11-21T04:05:53;46.23;;;22.90;;
6850;SDS011;3464;42.728;23.296;2023-11-21T04:08:20;52.33;;;25.63;;
6850;SDS011;3464;42.728;23.296;2023-11-21T04:10:47;41.60;;;20.03;;
6850;SDS011;3464;42.728;23.296;2023-11-21T04:13:14;38.47;;;19.80;;
6850;SDS011;3464;42.728;23.296;2023-11-21T04:18:55;41.63;;;19.00;;
6850;SDS011;3464;42.728;23.296;2023-11-21T04:21:46;35.90;;;18.77;;
6850;SDS011;3464;42.728;23.296;2023-11-21T04:24:13;34.40;;;18.07;;
6850;SDS011;3464;42.728;23.296;2023-11-21T04:26:40;38.50;;;19.90;;
6850;SDS011;3464;42.728;23.296;2023-11-21T04:29:08;43.17;;;21.30;;
6850;SDS011;3464;42.728;23.296;2023-11-21T04:31:37;42.20;;;19.70;;
6850;SDS011;3464;42.728;23.296;2023-11-21T04:34:07;37.07;;;19.50;;
6850;SDS011;3464;42.728;23.296;2023-11-21T04:36:33;35.53;;;19.70;;
6850;SDS011;3464;42.728;23.296;2023-11-21T04:39:00;43.03;;;20.50;;
6850;SDS011;3464;42.728;23.296;2023-11-21T04:41:27;36.80;;;19.63;;
6850;SDS011;3464;42.728;23.296;2023-11-21T04:43:53;39.03;;;18.87;;
6850;SDS011;3464;42.728;23.296;2023-11-21T04:46:20;37.40;;;20.00;;
6850;SDS011;3464;42.728;23.296;2023-11-21T04:48:46;39.10;;;19.10;;
6850;SDS011;3464;42.728;23.296;2023-11-21T04:51:14;39.53;;;20.03;;
6850;SDS011;3464;42.728;23.296;2023-11-21T04:53:40;42.53;;;19.70;;
6850;SDS011;3464;42.728;23.296;2023-11-21T04:56:08;40.93;;;19.20;;
6850;SDS011;3464;42.728;23.296;2023-11-21T04:58:34;41.10;;;21.80;;
6850;SDS011;3464;42.728;23.296;2023-11-21T05:01:01;48.00;;;21.60;;
6850;SDS011;3464;42.728;23.296;2023-11-21T05:03:28;43.47;;;24.03;;
6850;SDS011;3464;42.728;23.296;2023-11-21T05:05:55;45.87;;;24.83;;
6850;SDS011;3464;42.728;23.296;2023-11-21T05:08:21;46.77;;;25.87;;
6850;SDS011;3464;42.728;23.296;2023-11-21T05:10:48;49.70;;;27.90;;
6850;SDS011;3464;42.728;23.296;2023-11-21T05:13:15;55.53;;;29.00;;
6850;SDS011;3464;42.728;23.296;2023-11-21T05:15:41;60.03;;;33.60;;
6850;SDS011;3464;42.728;23.296;2023-11-21T05:18:08;65.20;;;33.13;;
6850;SDS011;3464;42.728;23.296;2023-11-21T05:20:34;58.93;;;33.30;;
6850;SDS011;3464;42.728;23.296;2023-11-21T05:23:01;67.30;;;33.13;;
6850;SDS011;3464;42.728;23.296;2023-11-21T05:25:28;54.90;;;31.07;;
6850;SDS011;3464;42.728;23.296;2023-11-21T05:27:54;63.90;;;31.57;;
6850;SDS011;3464;42.728;23.296;2023-11-21T05:30:21;60.43;;;32.20;;
6850;SDS011;3464;42.728;23.296;2023-11-21T05:32:47;73.10;;;37.20;;
6850;SDS011;3464;42.728;23.296;2023-11-21T05:35:15;86.07;;;45.77;;
6850;SDS011;3464;42.728;23.296;2023-11-21T05:37:42;81.13;;;43.00;;
6850;SDS011;3464;42.728;23.296;2023-11-21T05:40:08;82.33;;;41.40;;
6850;SDS011;3464;42.728;23.296;2023-11-21T05:42:36;98.97;;;46.37;;
6850;SDS011;3464;42.728;23.296;2023-11-21T05:45:03;85.87;;;43.80;;
6850;SDS011;3464;42.728;23.296;2023-11-21T05:47:36;86.83;;;43.47;;
6850;SDS011;3464;42.728;23.296;2023-11-21T05:50:07;82.10;;;41.50;;
6850;SDS011;3464;42.728;23.296;2023-11-21T05:52:36;79.87;;;39.30;;
6850;SDS011;3464;42.728;23.296;2023-11-21T05:55:03;59.00;;;28.57;;
6850;SDS011;3464;42.728;23.296;2023-11-21T06:00:29;41.00;;;21.30;;
6850;SDS011;3464;42.728;23.296;2023-11-21T06:02:56;48.93;;;20.07;;
6850;SDS011;3464;42.728;23.296;2023-11-21T06:05:23;43.57;;;18.43;;
6850;SDS011;3464;42.728;23.296;2023-11-21T06:07:50;42.33;;;18.13;;
6850;SDS011;3464;42.728;23.296;2023-11-21T06:10:16;33.47;;;16.53;;
6850;SDS011;3464;42.728;23.296;2023-11-21T06:12:43;33.63;;;15.80;;
6850;SDS011;3464;42.728;23.296;2023-11-21T06:15:10;32.97;;;15.67;;
6850;SDS011;3464;42.728;23.296;2023-11-21T06:17:39;32.53;;;15.00;;
6850;SDS011;3464;42.728;23.296;2023-11-21T06:20:06;43.97;;;16.50;;
6850;SDS011;3464;42.728;23.296;2023-11-21T06:22:38;34.03;;;17.20;;
6850;SDS011;3464;42.728;23.296;2023-11-21T06:25:05;41.40;;;16.60;;
6850;SDS011;3464;42.728;23.296;2023-11-21T06:27:32;40.80;;;17.67;;
6850;SDS011;3464;42.728;23.296;2023-11-21T06:29:59;51.17;;;17.73;;
6850;SDS011;3464;42.728;23.296;2023-11-21T06:32:26;43.20;;;17.30;;
6850;SDS011;3464;42.728;23.296;2023-11-21T06:34:53;39.27;;;17.83;;
6850;SDS011;3464;42.728;23.296;2023-11-21T06:37:23;36.17;;;15.53;;
6850;SDS011;3464;42.728;23.296;2023-11-21T06:39:50;29.20;;;15.53;;
6850;SDS011;3464;42.728;23.296;2023-11-21T06:42:16;34.00;;;17.67;;
6850;SDS011;3464;42.728;23.296;2023-11-21T06:44:43;36.53;;;16.20;;
6850;SDS011;3464;42.728;23.296;2023-11-21T06:47:09;32.77;;;14.47;;
6850;SDS011;3464;42.728;23.296;2023-11-21T06:49:36;29.03;;;14.03;;
6850;SDS011;3464;42.728;23.296;2023-11-21T06:52:02;34.40;;;15.53;;
6850;SDS011;3464;42.728;23.296;2023-11-21T06:54:30;32.10;;;15.70;;
6850;SDS011;3464;42.728;23.296;2023-11-21T06:56:57;33.97;;;16.47;;
6850;SDS011;3464;42.728;23.296;2023-11-21T06:59:23;41.00;;;17.70;;
6850;SDS011;3464;42.728;23.296;2023-11-21T07:01:50;41.87;;;19.33;;
6850;SDS011;3464;42.728;23.296;2023-11-21T07:04:17;42.47;;;20.60;;
6850;SDS011;3464;42.728;23.296;2023-11-21T07:06:44;41.80;;;20.60;;
6850;SDS011;3464;42.728;23.296;2023-11-21T07:09:11;47.73;;;22.10;;
6850;SDS011;3464;42.728;23.296;2023-11-21T07:11:39;45.70;;;21.97;;
6850;SDS011;3464;42.728;23.296;2023-11-21T07:14:05;45.20;;;22.90;;
6850;SDS011;3464;42.728;23.296;2023-11-21T07:16:34;48.90;;;23.70;;
6850;SDS011;3464;42.728;23.296;2023-11-21T07:19:01;49.17;;;22.50;;
6850;SDS011;3464;42.728;23.296;2023-11-21T07:21:28;42.13;;;20.80;;
6850;SDS011;3464;42.728;23.296;2023-11-21T07:23:55;38.13;;;21.00;;
6850;SDS011;3464;42.728;23.296;2023-11-21T07:26:21;45.70;;;21.77;;
6850;SDS011;3464;42.728;23.296;2023-11-21T07:28:48;39.67;;;23.20;;
6850;SDS011;3464;42.728;23.296;2023-11-21T07:31:15;41.50;;;23.57;;
6850;SDS011;3464;42.728;23.296;2023-11-21T07:33:41;39.13;;;21.53;;
6850;SDS011;3464;42.728;23.296;2023-11-21T07:36:09;45.23;;;22.33;;
6850;SDS011;3464;42.728;23.296;2023-11-21T07:38:36;52.87;;;23.30;;
6850;SDS011;3464;42.728;23.296;2023-11-21T07:41:03;41.90;;;21.73;;
6850;SDS011;3464;42.728;23.296;2023-11-21T07:43:30;45.27;;;21.53;;
6850;SDS011;3464;42.728;23.296;2023-11-21T07:45:57;43.63;;;20.57;;
6850;SDS011;3464;42.728;23.296;2023-11-21T07:48:23;39.63;;;20.33;;
6850;SDS011;3464;42.728;23.296;2023-11-21T07:50:50;38.00;;;18.60;;
6850;SDS011;3464;42.728;23.296;2023-11-21T07:53:16;41.97;;;19.07;;
6850;SDS011;3464;42.728;23.296;2023-11-21T07:55:43;43.00;;;19.97;;
6850;SDS011;3464;42.728;23.296;2023-11-21T07:58:10;35.30;;;19.13;;
6850;SDS011;3464;42.728;23.296;2023-11-21T08:00:36;37.73;;;19.20;;
6850;SDS011;3464;42.728;23.296;2023-11-21T08:03:03;41.20;;;19.70;;
6850;SDS011;3464;42.728;23.296;2023-11-21T08:05:30;36.13;;;18.57;;
6850;SDS011;3464;42.728;23.296;2023-11-21T08:07:56;34.40;;;18.00;;
6850;SDS011;3464;42.728;23.296;2023-11-21T08:10:23;34.17;;;18.40;;
6850;SDS011;3464;42.728;23.296;2023-11-21T08:12:50;35.90;;;18.20;;
6850;SDS011;3464;42.728;23.296;2023-11-21T08:15:17;42.67;;;19.37;;
6850;SDS011;3464;42.728;23.296;2023-11-21T08:17:43;35.90;;;18.30;;
6850;SDS011;3464;42.728;23.296;2023-11-21T08:20:10;42.70;;;19.50;;
6850;SDS011;3464;42.728;23.296;2023-11-21T08:22:37;45.93;;;19.97;;
6850;SDS011;3464;42.728;23.296;2023-11-21T08:25:05;38.80;;;19.60;;
6850;SDS011;3464;42.728;23.296;2023-11-21T08:27:31;39.73;;;18.53;;
6850;SDS011;3464;42.728;23.296;2023-11-21T08:29:58;37.33;;;18.33;;
6850;SDS011;3464;42.728;23.296;2023-11-21T08:32:25;44.17;;;18.80;;
6850;SDS011;3464;42.728;23.296;2023-11-21T08:34:51;42.27;;;19.60;;
6850;SDS011;3464;42.728;23.296;2023-11-21T08:37:18;39.60;;;20.50;;
6850;SDS011;3464;42.728;23.296;2023-11-21T08:39:47;49.53;;;24.47;;
6850;SDS011;3464;42.728;23.296;2023-11-21T08:42:12;44.00;;;22.87;;
6850;SDS011;3464;42.728;23.296;2023-11-21T08:44:39;42.53;;;21.80;;
6850;SDS011;3464;42.728;23.296;2023-11-21T08:47:05;45.73;;;22.17;;
6850;SDS011;3464;42.728;23.296;2023-11-21T08:49:32;44.67;;;22.13;;
6850;SDS011;3464;42.728;23.296;2023-11-21T08:51:59;49.50;;;22.17;;
6850;SDS011;3464;42.728;23.296;2023-11-21T08:57:34;49.00;;;21.83;;
6850;SDS011;3464;42.728;23.296;2023-11-21T09:00:01;56.30;;;23.43;;
6850;SDS011;3464;42.728;23.296;2023-11-21T09:02:27;43.80;;;22.40;;
6850;SDS011;3464;42.728;23.296;2023-11-21T09:04:54;45.90;;;22.30;;
6850;SDS011;3464;42.728;23.296;2023-11-21T09:07:21;52.50;;;23.40;;
6850;SDS011;3464;42.728;23.296;2023-11-21T09:09:47;46.70;;;21.80;;
6850;SDS011;3464;42.728;23.296;2023-11-21T09:12:14;45.03;;;21.97;;
6850;SDS011;3464;42.728;23.296;2023-11-21T09:14:41;43.67;;;22.37;;
6850;SDS011;3464;42.728;23.296;2023-11-21T09:17:07;52.20;;;23.97;;
6850;SDS011;3464;42.728;23.296;2023-11-21T09:19:34;47.47;;;22.80;;
6850;SDS011;3464;42.728;23.296;2023-11-21T09:22:01;45.70;;;23.70;;
6850;SDS011;3464;42.728;23.296;2023-11-21T09:24:27;56.50;;;24.43;;
6850;SDS011;3464;42.728;23.296;2023-11-21T09:26:54;45.17;;;19.53;;
6850;SDS011;3464;42.728;23.296;2023-11-21T09:29:21;43.20;;;19.73;;
6850;SDS011;3464;42.728;23.296;2023-11-21T09:31:49;41.43;;;18.63;;
6850;SDS011;3464;42.728;23.296;2023-11-21T09:34:16;50.10;;;19.90;;
6850;SDS011;3464;42.728;23.296;2023-11-21T09:36:45;45.03;;;23.17;;
6850;SDS011;3464;42.728;23.296;2023-11-21T09:39:11;64.70;;;32.27;;
6850;SDS011;3464;42.728;23.296;2023-11-21T09:41:43;59.67;;;26.70;;
6850;SDS011;3464;42.728;23.296;2023-11-21T09:44:18;51.60;;;26.57;;
6850;SDS011;3464;42.728;23.296;2023-11-21T09:46:44;49.37;;;27.03;;
6850;SDS011;3464;42.728;23.296;2023-11-21T09:49:11;47.40;;;28.50;;
6850;SDS011;3464;42.728;23.296;2023-11-21T09:51:39;53.00;;;27.83;;
6850;SDS011;3464;42.728;23.296;2023-11-21T09:54:06;52.00;;;26.53;;
6850;SDS011;3464;42.728;23.296;2023-11-21T09:56:32;49.03;;;25.70;;
6850;SDS011;3464;42.728;23.296;2023-11-21T09:58:59;48.70;;;27.17;;
6850;SDS011;3464;42.728;23.296;2023-11-21T10:01:26;41.47;;;22.30;;
6850;SDS011;3464;42.728;23.296;2023-11-21T10:03:52;42.87;;;23.23;;
6850;SDS011;3464;42.728;23.296;2023-11-21T10:06:19;48.90;;;25.47;;
6850;SDS011;3464;42.728;23.296;2023-11-21T10:08:46;49.63;;;25.07;;
6850;SDS011;3464;42.728;23.296;2023-11-21T10:11:12;44.90;;;19.57;;
6850;SDS011;3464;42.728;23.296;2023-11-21T10:13:39;43.70;;;17.13;;
6850;SDS011;3464;42.728;23.296;2023-11-21T10:16:06;31.63;;;15.90;;
6850;SDS011;3464;42.728;23.296;2023-11-21T10:18:33;34.77;;;15.60;;
6850;SDS011;3464;42.728;23.296;2023-11-21T10:21:00;33.17;;;15.80;;
6850;SDS011;3464;42.728;23.296;2023-11-21T10:23:27;34.57;;;15.87;;
6850;SDS011;3464;42.728;23.296;2023-11-21T10:25:53;38.53;;;15.77;;
6850;SDS011;3464;42.728;23.296;2023-11-21T10:28:19;31.73;;;16.50;;
6850;SDS011;3464;42.728;23.296;2023-11-21T10:30:46;31.60;;;15.60;;
6850;SDS011;3464;42.728;23.296;2023-11-21T10:33:13;33.67;;;16.20;;
6850;SDS011;3464;42.728;23.296;2023-11-21T10:35:48;37.63;;;16.60;;
6850;SDS011;3464;42.728;23.296;2023-11-21T10:38:16;40.17;;;15.50;;
6850;SDS011;3464;42.728;23.296;2023-11-21T10:40:44;40.47;;;15.20;;
6850;SDS011;3464;42.728;23.296;2023-11-21T10:43:11;32.43;;;15.90;;
6850;SDS011;3464;42.728;23.296;2023-11-21T10:45:39;37.20;;;17.10;;
6850;SDS011;3464;42.728;23.296;2023-11-21T10:48:06;34.20;;;17.80;;
6850;SDS011;3464;42.728;23.296;2023-11-21T10:50:32;38.67;;;18.40;;
6850;SDS011;3464;42.728;23.296;2023-11-21T10:52:58;31.53;;;16.93;;
6850;SDS011;3464;42.728;23.296;2023-11-21T10:55:25;30.37;;;15.60;;
6850;SDS011;3464;42.728;23.296;2023-11-21T10:57:52;38.00;;;16.50;;
6850;SDS011;3464;42.728;23.296;2023-11-21T11:00:19;35.73;;;17.63;;
6850;SDS011;3464;42.728;23.296;2023-11-21T11:02:51;50.27;;;25.83;;
6850;SDS011;3464;42.728;23.296;2023-11-21T11:05:19;30.40;;;15.30;;
6850;SDS011;3464;42.728;23.296;2023-11-21T11:07:44;32.20;;;15.63;;
6850;SDS011;3464;42.728;23.296;2023-11-21T11:10:10;38.90;;;19.80;;
6850;SDS011;3464;42.728;23.296;2023-11-21T11:12:38;34.60;;;18.40;;
6850;SDS011;3464;42.728;23.296;2023-11-21T11:15:04;36.47;;;19.93;;
6850;SDS011;3464;42.728;23.296;2023-11-21T11:17:31;55.60;;;21.23;;
6850;SDS011;3464;42.728;23.296;2023-11-21T11:19:58;41.53;;;21.37;;
6850;SDS011;3464;42.728;23.296;2023-11-21T11:22:34;40.63;;;19.83;;
6850;SDS011;3464;42.728;23.296;2023-11-21T11:25:03;39.73;;;16.90;;
6850;SDS011;3464;42.728;23.296;2023-11-21T11:27:38;42.57;;;17.50;;
6850;SDS011;3464;42.728;23.296;2023-11-21T11:30:23;35.60;;;15.57;;
6850;SDS011;3464;42.728;23.296;2023-11-21T11:32:53;35.07;;;16.23;;
6850;SDS011;3464;42.728;23.296;2023-11-21T11:35:24;37.90;;;17.13;;
6850;SDS011;3464;42.728;23.296;2023-11-21T11:37:50;33.83;;;17.63;;
6850;SDS011;3464;42.728;23.296;2023-11-21T11:40:17;44.40;;;19.77;;
6850;SDS011;3464;42.728;23.296;2023-11-21T11:43:01;35.83;;;18.43;;
6850;SDS011;3464;42.728;23.296;2023-11-21T11:45:32;38.03;;;19.37;;
6850;SDS011;3464;42.728;23.296;2023-11-21T11:47:58;41.57;;;19.93;;
6850;SDS011;3464;42.728;23.296;2023-11-21T11:50:26;38.90;;;20.00;;
6850;SDS011;3464;42.728;23.296;2023-11-21T11:52:53;43.03;;;22.43;;
6850;SDS011;3464;42.728;23.296;2023-11-21T11:55:20;47.23;;;23.37;;
6850;SDS011;3464;42.728;23.296;2023-11-21T11:57:48;50.57;;;24.83;;
6850;SDS011;3464;42.728;23.296;2023-11-21T12:00:17;50.10;;;25.33;;
6850;SDS011;3464;42.728;23.296;2023-11-21T12:02:48;47.07;;;22.90;;
6850;SDS011;3464;42.728;23.296;2023-11-21T12:05:15;46.53;;;21.40;;
6850;SDS011;3464;42.728;23.296;2023-11-21T12:07:42;42.20;;;20.87;;
6850;SDS011;3464;42.728;23.296;2023-11-21T12:10:15;49.03;;;20.57;;
6850;SDS011;3464;42.728;23.296;2023-11-21T12:12:42;44.40;;;22.30;;
6850;SDS011;3464;42.728;23.296;2023-11-21T12:15:09;45.00;;;22.37;;
6850;SDS011;3464;42.728;23.296;2023-11-21T12:17:35;45.90;;;21.73;;
6850;SDS011;3464;42.728;23.296;2023-11-21T12:20:02;39.37;;;19.27;;
6850;SDS011;3464;42.728;23.296;2023-11-21T12:22:28;39.17;;;20.03;;
6850;SDS011;3464;42.728;23.296;2023-11-21T12:24:55;37.70;;;18.40;;
6850;SDS011;3464;42.728;23.296;2023-11-21T12:27:22;34.73;;;17.27;;
6850;SDS011;3464;42.728;23.296;2023-11-21T12:29:48;39.57;;;18.40;;
6850;SDS011;3464;42.728;23.296;2023-11-21T12:32:15;32.33;;;17.40;;
6850;SDS011;3464;42.728;23.296;2023-11-21T12:34:42;29.90;;;15.93;;
6850;SDS011;3464;42.728;23.296;2023-11-21T12:37:08;31.60;;;16.33;;
6850;SDS011;3464;42.728;23.296;2023-11-21T12:39:35;39.73;;;17.00;;
6850;SDS011;3464;42.728;23.296;2023-11-21T12:42:01;30.37;;;15.27;;
6850;SDS011;3464;42.728;23.296;2023-11-21T12:44:28;32.77;;;16.47;;
6850;SDS011;3464;42.728;23.296;2023-11-21T12:46:58;35.63;;;15.60;;
6850;SDS011;3464;42.728;23.296;2023-11-21T12:49:24;33.37;;;15.60;;
6850;SDS011;3464;42.728;23.296;2023-11-21T12:51:51;32.30;;;15.57;;
6850;SDS011;3464;42.728;23.296;2023-11-21T12:54:18;41.23;;;16.87;;
6850;SDS011;3464;42.728;23.296;2023-11-21T12:56:45;47.57;;;17.23;;
6850;SDS011;3464;42.728;23.296;2023-11-21T12:59:14;37.63;;;18.20;;
6850;SDS011;3464;42.728;23.296;2023-11-21T13:01:42;34.27;;;16.27;;
6850;SDS011;3464;42.728;23.296;2023-11-21T13:04:08;38.83;;;16.27;;
6850;SDS011;3464;42.728;23.296;2023-11-21T13:06:35;55.20;;;19.63;;
6850;SDS011;3464;42.728;23.296;2023-11-21T13:09:10;35.73;;;18.63;;
6850;SDS011;3464;42.728;23.296;2023-11-21T13:11:59;44.00;;;19.87;;
6850;SDS011;3464;42.728;23.296;2023-11-21T13:14:19;75.40;;;22.10;;
6850;SDS011;3464;42.728;23.296;2023-11-21T13:16:46;50.63;;;19.90;;
6850;SDS011;3464;42.728;23.296;2023-11-21T13:19:12;42.80;;;21.07;;
6850;SDS011;3464;42.728;23.296;2023-11-21T13:21:39;44.87;;;22.40;;
6850;SDS011;3464;42.728;23.296;2023-11-21T13:24:06;42.07;;;22.87;;
6850;SDS011;3464;42.728;23.296;2023-11-21T13:26:32;43.83;;;22.60;;
6850;SDS011;3464;42.728;23.296;2023-11-21T13:28:59;51.53;;;24.63;;
6850;SDS011;3464;42.728;23.296;2023-11-21T13:31:25;47.37;;;25.53;;
6850;SDS011;3464;42.728;23.296;2023-11-21T13:33:52;44.60;;;23.40;;
6850;SDS011;3464;42.728;23.296;2023-11-21T13:36:22;44.33;;;22.57;;
6850;SDS011;3464;42.728;23.296;2023-11-21T13:38:49;45.27;;;24.20;;
6850;SDS011;3464;42.728;23.296;2023-11-21T13:41:15;44.23;;;22.87;;
6850;SDS011;3464;42.728;23.296;2023-11-21T13:43:46;46.43;;;22.87;;
6850;SDS011;3464;42.728;23.296;2023-11-21T13:46:15;40.77;;;22.90;;
6850;SDS011;3464;42.728;23.296;2023-11-21T13:48:44;39.97;;;21.80;;
6850;SDS011;3464;42.728;23.296;2023-11-21T13:51:11;42.80;;;21.60;;
6850;SDS011;3464;42.728;23.296;2023-11-21T13:53:54;44.30;;;21.00;;
6850;SDS011;3464;42.728;23.296;2023-11-21T14:02:42;41.57;;;22.60;;
6850;SDS011;3464;42.728;23.296;2023-11-21T14:05:09;45.13;;;22.40;;
6850;SDS011;3464;42.728;23.296;2023-11-21T14:07:38;48.40;;;22.23;;
6850;SDS011;3464;42.728;23.296;2023-11-21T14:10:05;42.00;;;22.17;;
6850;SDS011;3464;42.728;23.296;2023-11-21T14:12:34;42.90;;;23.40;;
6850;SDS011;3464;42.728;23.296;2023-11-21T14:15:02;40.20;;;22.20;;
6850;SDS011;3464;42.728;23.296;2023-11-21T14:17:29;43.37;;;24.40;;
6850;SDS011;3464;42.728;23.296;2023-11-21T14:19:56;49.63;;;25.93;;
6850;SDS011;3464;42.728;23.296;2023-11-21T14:22:25;44.87;;;25.03;;
6850;SDS011;3464;42.728;23.296;2023-11-21T14:24:53;44.83;;;24.87;;
6850;SDS011;3464;42.728;23.296;2023-11-21T14:27:20;47.80;;;27.57;;
6850;SDS011;3464;42.728;23.296;2023-11-21T14:29:59;48.47;;;26.77;;
6850;SDS011;3464;42.728;23.296;2023-11-21T14:32:25;48.73;;;28.50;;
6850;SDS011;3464;42.728;23.296;2023-11-21T14:34:52;58.50;;;31.13;;
6850;SDS011;3464;42.728;23.296;2023-11-21T14:37:18;60.50;;;34.80;;
6850;SDS011;3464;42.728;23.296;2023-11-21T14:39:45;68.00;;;39.20;;
6850;SDS011;3464;42.728;23.296;2023-11-21T14:42:11;78.40;;;43.83;;
6850;SDS011;3464;42.728;23.296;2023-11-21T14:44:38;83.23;;;45.90;;
6850;SDS011;3464;42.728;23.296;2023-11-21T14:47:05;87.83;;;47.17;;
6850;SDS011;3464;42.728;23.296;2023-11-21T14:49:32;80.80;;;48.70;;